createdAt,value
2018-01-14T00:01:04.898Z,13.20
2018-01-14T00:03:33.388Z,13.43
2018-01-14T00:06:01.935Z,13.48
2018-01-14T00:08:29.665Z,12.68
2018-01-14T00:10:57.390Z,13.32
2018-01-14T00:13:25.122Z,11.55
2018-01-14T00:15:52.857Z,13.13
2018-01-14T00:18:20.600Z,12.65
2018-01-14T00:20:49.089Z,14.23
2018-01-14T00:23:17.587Z,11.52
2018-01-14T00:25:45.488Z,12.00
2018-01-14T00:28:13.214Z,11.25
2018-01-14T00:30:40.946Z,12.02
2018-01-14T00:33:09.453Z,11.35
2018-01-14T00:35:37.203Z,13.20
2018-01-14T00:38:05.733Z,13.15
2018-01-14T00:40:33.463Z,11.68
2018-01-14T00:43:01.246Z,12.02
2018-01-14T00:45:28.985Z,12.07
2018-01-14T00:47:57.485Z,13.48
2018-01-14T00:50:25.221Z,12.32
2018-01-14T00:52:53.872Z,12.52
2018-01-14T00:55:21.612Z,11.80
2018-01-14T00:57:49.349Z,11.48
2018-01-14T01:00:17.847Z,11.40
2018-01-14T01:02:45.649Z,13.30
2018-01-14T01:05:13.381Z,12.48
2018-01-14T01:07:41.134Z,12.88
2018-01-14T01:10:08.857Z,12.88
2018-01-14T01:12:36.606Z,13.40
2018-01-14T01:15:04.473Z,11.25
2018-01-14T01:17:32.340Z,13.38
2018-01-14T01:20:00.209Z,12.77
2018-01-14T01:22:27.927Z,13.43
2018-01-14T01:24:55.645Z,12.35
2018-01-14T01:27:23.386Z,12.73
2018-01-14T01:29:51.110Z,11.73
2018-01-14T01:32:19.585Z,11.82
2018-01-14T01:34:48.085Z,13.80
2018-01-14T01:37:15.805Z,11.30
2018-01-14T01:39:43.513Z,11.45
2018-01-14T01:42:11.255Z,12.43
2018-01-14T01:44:39.746Z,11.35
2018-01-14T01:47:08.234Z,13.80
2018-01-14T01:49:36.713Z,12.18
2018-01-14T01:52:04.438Z,11.68
2018-01-14T01:54:32.153Z,10.98
2018-01-14T01:56:59.958Z,14.73
2018-01-14T01:59:27.825Z,12.63
2018-01-14T02:01:55.555Z,12.85
2018-01-14T02:04:23.270Z,12.90
2018-01-14T02:06:51.120Z,14.20
2018-01-14T02:09:18.842Z,13.10
2018-01-14T02:11:46.653Z,12.70
2018-01-14T02:14:14.361Z,13.18
2018-01-14T02:16:42.853Z,11.20
2018-01-14T02:19:10.597Z,14.02
2018-01-14T02:21:39.109Z,13.07
2018-01-14T02:24:06.834Z,13.93
2018-01-14T02:26:34.553Z,14.15
2018-01-14T02:29:02.284Z,13.68
2018-01-14T02:31:30.814Z,14.07
2018-01-14T02:33:58.684Z,12.13
2018-01-14T02:36:26.552Z,15.77
2018-01-14T02:38:54.289Z,13.60
2018-01-14T02:41:22.034Z,14.00
2018-01-14T02:43:49.772Z,13.70
2018-01-14T02:46:17.612Z,13.75
2018-01-14T02:48:46.401Z,13.45
2018-01-14T02:51:14.268Z,14.35
2018-01-14T02:53:42.135Z,13.52
2018-01-14T02:56:10.010Z,15.57
2018-01-14T02:58:37.869Z,14.77
2018-01-14T03:01:05.737Z,13.32
2018-01-14T03:03:33.466Z,14.48
2018-01-14T03:06:01.270Z,15.75
2018-01-14T03:08:29.134Z,13.70
2018-01-14T03:10:56.865Z,14.57
2018-01-14T03:13:24.585Z,15.75
2018-01-14T03:15:52.428Z,14.70
2018-01-14T03:18:20.296Z,14.82
2018-01-14T03:20:48.045Z,14.65
2018-01-14T03:23:15.777Z,15.88
2018-01-14T03:25:43.548Z,14.85
2018-01-14T03:28:11.357Z,14.48
2018-01-14T03:30:39.223Z,15.95
2018-01-14T03:33:07.092Z,15.23
2018-01-14T03:35:34.821Z,15.30
2018-01-14T03:38:02.649Z,14.52
2018-01-14T03:40:30.488Z,15.38
2018-01-14T03:42:58.354Z,16.98
2018-01-14T03:45:26.225Z,14.30
2018-01-14T03:47:54.090Z,16.33
2018-01-14T03:50:21.805Z,16.87
2018-01-14T03:52:50.553Z,17.25
2018-01-14T03:55:18.407Z,16.58
2018-01-14T03:57:46.275Z,20.25
2018-01-14T04:00:14.044Z,17.33
2018-01-14T04:02:41.772Z,15.55
2018-01-14T04:05:09.501Z,18.08
2018-01-14T04:07:37.975Z,19.87
2018-01-14T04:10:05.817Z,17.62
2018-01-14T04:12:33.684Z,16.85
2018-01-14T04:15:01.394Z,16.98
2018-01-14T04:17:29.112Z,19.25
2018-01-14T04:19:56.817Z,17.58
2018-01-14T04:22:25.292Z,17.33
2018-01-14T04:24:54.002Z,19.00
2018-01-14T04:27:21.740Z,18.52
2018-01-14T04:29:50.221Z,20.12
2018-01-14T04:32:18.695Z,17.80
2018-01-14T04:34:46.537Z,18.05
2018-01-14T04:37:14.405Z,17.35
2018-01-14T04:39:42.274Z,20.20
2018-01-14T04:42:10.140Z,18.15
2018-01-14T04:44:37.853Z,19.90
2018-01-14T04:47:05.566Z,18.95
2018-01-14T04:49:33.945Z,20.10
2018-01-14T04:52:01.685Z,20.08
2018-01-14T04:54:29.401Z,20.77
2018-01-14T04:56:57.117Z,19.92
2018-01-14T04:59:24.826Z,18.73
2018-01-14T05:01:52.565Z,19.77
2018-01-14T05:04:20.278Z,20.70
2018-01-14T05:06:48.754Z,18.85
2018-01-14T05:09:17.399Z,18.67
2018-01-14T05:11:45.265Z,19.75
2018-01-14T05:14:13.133Z,19.60
2018-01-14T05:16:43.072Z,21.02
2018-01-14T05:19:11.018Z,20.83
2018-01-14T05:21:38.884Z,18.35
2018-01-14T05:24:06.604Z,20.67
2018-01-14T05:26:35.078Z,18.92
2018-01-14T05:29:03.570Z,18.48
2018-01-14T05:31:31.282Z,19.52
2018-01-14T05:33:58.999Z,19.37
2018-01-14T05:36:26.745Z,22.25
2018-01-14T05:38:55.234Z,18.73
2018-01-14T05:41:23.871Z,19.37
2018-01-14T05:43:51.738Z,19.23
2018-01-14T05:46:19.454Z,19.35
2018-01-14T05:48:47.268Z,19.75
2018-01-14T05:51:14.972Z,19.05
2018-01-14T05:53:43.449Z,18.77
2018-01-14T05:56:11.931Z,18.40
2018-01-14T05:58:40.404Z,19.75
2018-01-14T06:01:08.113Z,18.73
2018-01-14T06:03:35.846Z,21.00
2018-01-14T06:06:04.540Z,18.12
2018-01-14T06:08:33.000Z,17.00
2018-01-14T06:11:00.712Z,18.83
2018-01-14T06:13:28.464Z,19.92
2018-01-14T06:15:56.268Z,19.80
2018-01-14T06:18:25.826Z,21.23
2018-01-14T06:20:56.087Z,18.30
2018-01-14T06:23:25.340Z,19.52
2018-01-14T06:25:55.349Z,17.75
2018-01-14T06:28:23.838Z,18.45
2018-01-14T06:30:52.317Z,18.62
2018-01-14T06:33:20.042Z,17.08
2018-01-14T06:35:47.745Z,18.27
2018-01-14T06:38:16.245Z,17.23
2018-01-14T06:40:43.959Z,17.58
2018-01-14T06:43:11.674Z,18.50
2018-01-14T06:45:39.381Z,17.92
2018-01-14T06:48:08.606Z,17.08
2018-01-14T06:50:36.651Z,16.40
2018-01-14T06:53:04.516Z,20.23
2018-01-14T06:55:32.236Z,16.92
2018-01-14T06:57:59.949Z,18.00
2018-01-14T07:00:27.662Z,18.58
2018-01-14T07:02:55.374Z,17.55
2018-01-14T07:05:23.096Z,18.12
2018-01-14T07:07:51.703Z,18.48
2018-01-14T07:10:19.427Z,17.90
2018-01-14T07:12:47.902Z,16.60
2018-01-14T07:15:16.382Z,17.58
2018-01-14T07:17:44.869Z,16.62
2018-01-14T07:20:13.515Z,17.92
2018-01-14T07:22:41.381Z,16.98
2018-01-14T07:25:09.249Z,16.80
2018-01-14T07:27:37.116Z,16.77
2018-01-14T07:30:04.830Z,17.27
2018-01-14T07:32:33.321Z,17.12
2018-01-14T07:35:05.696Z,17.25
2018-01-14T07:37:36.543Z,15.15
2018-01-14T07:40:06.872Z,16.62
2018-01-14T07:42:44.508Z,16.17
2018-01-14T07:45:13.016Z,17.95
2018-01-14T07:47:41.498Z,16.33
2018-01-14T07:50:09.985Z,17.08
2018-01-14T07:52:40.572Z,15.27
2018-01-14T07:55:11.843Z,17.35
2018-01-14T07:57:40.503Z,14.57
2018-01-14T08:00:08.371Z,16.02
2018-01-14T08:02:36.237Z,17.40
2018-01-14T08:05:04.105Z,15.25
2018-01-14T08:07:31.972Z,16.50
2018-01-14T08:09:59.840Z,16.60
2018-01-14T08:12:27.707Z,15.27
2018-01-14T08:14:55.414Z,15.70
2018-01-14T08:17:24.056Z,16.55
2018-01-14T08:19:51.924Z,15.43
2018-01-14T08:22:19.793Z,16.77
2018-01-14T08:24:47.658Z,15.45
2018-01-14T08:27:15.526Z,15.45
2018-01-14T08:29:43.392Z,15.60
2018-01-14T08:32:11.260Z,14.48
2018-01-14T08:34:39.128Z,15.02
2018-01-14T08:37:06.995Z,14.57
2018-01-14T08:39:34.862Z,16.65
2018-01-14T08:42:02.731Z,16.17
2018-01-14T08:44:30.597Z,13.62
2018-01-14T08:46:58.464Z,15.55
2018-01-14T08:49:26.332Z,14.55
2018-01-14T08:51:54.198Z,14.25
2018-01-14T08:54:22.066Z,13.85
2018-01-14T08:56:49.933Z,16.10
2018-01-14T08:59:17.800Z,14.40
2018-01-14T09:01:50.508Z,14.95
2018-01-14T09:04:18.347Z,14.35
2018-01-14T09:06:46.215Z,14.75
2018-01-14T09:09:14.083Z,14.27
2018-01-14T09:11:41.950Z,13.15
2018-01-14T09:14:09.817Z,13.75
2018-01-14T09:16:37.685Z,14.07
2018-01-14T09:19:05.554Z,15.00
2018-01-14T09:21:34.090Z,14.57
2018-01-14T09:24:01.901Z,13.98
2018-01-14T09:26:29.768Z,12.15
2018-01-14T09:28:57.635Z,11.80
2018-01-14T09:31:25.557Z,13.40
2018-01-14T09:33:54.189Z,13.07
2018-01-14T09:36:22.056Z,13.20
2018-01-14T09:38:49.778Z,13.80
2018-01-14T09:41:17.586Z,12.05
2018-01-14T09:43:45.453Z,12.65
2018-01-14T09:46:13.321Z,13.50
2018-01-14T09:48:41.188Z,12.20
2018-01-14T09:51:09.064Z,13.27
2018-01-14T09:53:36.923Z,12.93
2018-01-14T09:56:04.788Z,13.50
2018-01-14T09:58:32.657Z,12.80
2018-01-14T10:01:00.525Z,12.20
2018-01-14T10:03:28.393Z,12.60
2018-01-14T10:05:56.259Z,12.77
2018-01-14T10:08:24.128Z,13.62
2018-01-14T10:10:51.994Z,11.80
2018-01-14T10:13:19.862Z,13.10
2018-01-14T10:15:47.728Z,12.93
2018-01-14T10:18:15.596Z,11.27
2018-01-14T10:20:43.507Z,12.60
2018-01-14T10:23:12.149Z,14.15
2018-01-14T10:25:39.873Z,11.73
2018-01-14T10:28:07.679Z,12.30
2018-01-14T10:30:35.546Z,12.43
2018-01-14T10:33:03.414Z,11.70
2018-01-14T10:35:31.282Z,13.02
2018-01-14T10:37:59.150Z,12.25
2018-01-14T10:40:27.016Z,12.60
2018-01-14T10:42:54.883Z,12.43
2018-01-14T10:45:22.622Z,13.73
2018-01-14T10:47:50.517Z,11.25
2018-01-14T10:50:18.384Z,12.68
2018-01-14T10:52:46.251Z,11.85
2018-01-14T10:55:14.118Z,11.85
2018-01-14T10:57:41.985Z,11.52
2018-01-14T11:00:09.852Z,12.43
2018-01-14T11:02:37.719Z,12.40
2018-01-14T11:05:05.586Z,12.27
2018-01-14T11:07:33.449Z,12.30
2018-01-14T11:10:01.321Z,10.68
2018-01-14T11:12:29.188Z,10.80
2018-01-14T11:14:57.056Z,11.68
2018-01-14T11:17:24.922Z,11.73
2018-01-14T11:19:52.792Z,12.82
2018-01-14T11:22:20.660Z,11.40
2018-01-14T11:24:48.526Z,10.98
2018-01-14T11:27:16.395Z,11.85
2018-01-14T11:30:01.976Z,13.73
2018-01-14T11:32:29.843Z,11.40
2018-01-14T11:34:57.709Z,10.27
2018-01-14T11:37:25.598Z,11.15
2018-01-14T11:39:53.444Z,10.85
2018-01-14T11:42:21.312Z,10.68
2018-01-14T11:44:49.179Z,10.63
2018-01-14T11:47:17.046Z,11.50
2018-01-14T11:49:44.914Z,11.50
2018-01-14T11:52:12.781Z,11.32
2018-01-14T11:54:40.649Z,10.32
2018-01-14T11:57:08.515Z,9.93
2018-01-14T11:59:36.383Z,9.90
2018-01-14T12:02:04.250Z,10.70
2018-01-14T12:04:32.118Z,10.43
2018-01-14T12:06:59.984Z,11.57
2018-01-14T12:09:27.852Z,10.57
2018-01-14T12:11:55.569Z,10.70
2018-01-14T12:14:23.286Z,12.93
2018-01-14T12:16:51.032Z,10.90
2018-01-14T12:19:18.737Z,11.27
2018-01-14T12:21:46.483Z,11.40
2018-01-14T12:24:15.363Z,12.10
2018-01-14T12:26:43.088Z,11.60
2018-01-14T12:29:11.958Z,10.88
2018-01-14T12:31:40.433Z,11.32
2018-01-14T12:34:32.449Z,10.43
2018-01-14T12:37:00.161Z,10.43
2018-01-14T12:39:27.877Z,12.20
2018-01-14T12:41:55.584Z,10.82
2018-01-14T12:44:23.390Z,11.60
2018-01-14T12:46:51.261Z,10.60
2018-01-14T12:49:18.966Z,10.82
2018-01-14T12:51:47.453Z,11.45
2018-01-14T12:54:15.169Z,11.38
2018-01-14T12:56:43.034Z,10.43
2018-01-14T12:59:10.901Z,10.48
2018-01-14T13:01:38.617Z,10.27
2018-01-14T13:04:06.431Z,9.95
2018-01-14T13:06:34.140Z,10.10
2018-01-14T13:09:02.779Z,10.60
2018-01-14T13:11:30.489Z,10.52
2018-01-14T13:13:58.962Z,10.70
2018-01-14T13:16:27.453Z,10.85
2018-01-14T13:18:58.186Z,10.57
2018-01-14T13:21:26.685Z,11.15
2018-01-14T13:23:55.001Z,12.15
2018-01-14T13:26:22.868Z,10.80
2018-01-14T13:28:50.593Z,8.70
2018-01-14T13:31:18.353Z,10.05
2018-01-14T13:33:46.167Z,9.85
2018-01-14T13:36:13.907Z,10.23
2018-01-14T13:38:41.633Z,9.05
2018-01-14T13:41:10.121Z,9.50
2018-01-14T13:43:38.613Z,9.57
2018-01-14T13:46:06.579Z,8.88
2018-01-14T13:48:34.309Z,10.60
2018-01-14T13:51:02.046Z,9.85
2018-01-14T13:53:29.769Z,9.15
2018-01-14T13:55:58.264Z,8.60
2018-01-14T13:58:25.986Z,8.82
2018-01-14T14:00:53.742Z,9.00
2018-01-14T14:03:21.465Z,10.05
2018-01-14T14:05:49.221Z,8.50
2018-01-14T14:08:16.941Z,8.27
2018-01-14T14:10:44.670Z,8.57
2018-01-14T14:13:12.392Z,9.15
2018-01-14T14:15:40.941Z,9.40
2018-01-14T14:18:08.678Z,9.30
2018-01-14T14:20:36.493Z,10.48
2018-01-14T14:23:05.010Z,9.50
2018-01-14T14:25:32.730Z,8.73
2018-01-14T14:30:34.484Z,8.85
2018-01-14T14:33:02.250Z,9.35
2018-01-14T14:35:30.118Z,8.93
2018-01-14T14:37:57.889Z,9.63
2018-01-14T14:40:25.622Z,9.73
2018-01-14T14:42:53.414Z,9.48
2018-01-14T14:45:21.279Z,9.80
2018-01-14T14:47:49.146Z,8.85
2018-01-14T14:50:16.865Z,9.50
2018-01-14T14:52:44.651Z,8.90
2018-01-14T14:55:12.441Z,9.13
2018-01-14T14:57:40.308Z,9.40
2018-01-14T15:00:08.022Z,10.00
2018-01-14T15:02:37.581Z,10.20
2018-01-14T15:05:06.470Z,8.93
2018-01-14T15:07:35.260Z,10.43
2018-01-14T15:10:03.946Z,10.02
2018-01-14T15:12:31.814Z,10.15
2018-01-14T15:14:59.538Z,8.05
2018-01-14T15:17:27.447Z,9.45
2018-01-14T15:19:55.313Z,10.70
2018-01-14T15:22:23.181Z,10.70
2018-01-14T15:24:52.592Z,9.38
2018-01-14T15:27:20.450Z,9.65
2018-01-14T15:29:48.318Z,10.15
2018-01-14T15:32:16.186Z,9.57
2018-01-14T15:34:44.060Z,9.95
2018-01-14T15:37:12.842Z,9.25
2018-01-14T15:39:40.574Z,9.63
2018-01-14T15:42:08.372Z,9.45
2018-01-14T15:44:36.239Z,8.65
2018-01-14T15:47:04.106Z,9.20
2018-01-14T15:49:32.588Z,9.90
2018-01-14T15:52:00.455Z,9.73
2018-01-14T15:54:28.223Z,10.70
2018-01-14T15:56:56.088Z,9.82
2018-01-14T15:59:24.159Z,10.05
2018-01-14T16:01:52.951Z,10.05
2018-01-14T16:04:20.819Z,10.15
2018-01-14T16:06:48.691Z,9.60
2018-01-14T16:09:16.551Z,9.38
2018-01-14T16:11:44.452Z,10.15
2018-01-14T16:14:13.104Z,10.20
2018-01-14T16:16:40.972Z,9.32
2018-01-14T16:19:09.026Z,10.18
2018-01-14T16:21:36.773Z,11.60
2018-01-14T16:24:04.576Z,10.18
2018-01-14T16:26:32.441Z,10.23
2018-01-14T16:29:00.171Z,11.38
2018-01-14T16:31:27.901Z,10.60
2018-01-14T16:33:56.556Z,9.68
2018-01-14T16:36:24.423Z,10.38
2018-01-14T16:38:52.291Z,10.27
2018-01-14T16:41:20.159Z,10.95
2018-01-14T16:43:48.024Z,9.27
2018-01-14T16:46:15.894Z,9.27
2018-01-14T16:48:43.758Z,10.85
2018-01-14T16:51:11.627Z,10.63
2018-01-14T16:53:39.368Z,10.55
2018-01-14T16:56:07.261Z,9.90
2018-01-14T16:58:34.998Z,9.88
2018-01-14T17:01:02.740Z,9.73
2018-01-14T17:03:31.117Z,10.45
2018-01-14T17:05:59.035Z,10.07
2018-01-14T17:08:26.759Z,9.13
2018-01-14T17:10:54.483Z,8.57
2018-01-14T17:13:22.211Z,9.18
2018-01-14T17:15:49.952Z,9.07
2018-01-14T17:18:17.659Z,8.50
2018-01-14T17:20:45.373Z,8.35
2018-01-14T17:23:13.094Z,8.00
2018-01-14T17:25:40.837Z,7.78
2018-01-14T17:28:08.715Z,7.60
2018-01-14T17:30:36.480Z,7.18
2018-01-14T17:33:04.347Z,7.82
2018-01-14T17:35:32.215Z,7.60
2018-01-14T17:38:00.082Z,8.05
2018-01-14T17:40:27.824Z,7.93
2018-01-14T17:42:55.612Z,7.95
2018-01-14T17:45:23.483Z,11.25
2018-01-14T17:47:51.240Z,9.70
2018-01-14T17:50:18.955Z,9.98
2018-01-14T17:52:46.674Z,9.40
2018-01-14T17:55:14.538Z,8.77
2018-01-14T17:57:43.867Z,14.40
2018-01-14T18:00:11.707Z,36.50
2018-01-14T18:02:39.574Z,16.33
2018-01-14T18:05:07.441Z,13.43
2018-01-14T18:07:35.323Z,13.82
2018-01-14T18:10:03.073Z,11.35
2018-01-14T18:12:30.941Z,9.15
2018-01-14T18:14:58.652Z,9.70
2018-01-14T18:17:27.234Z,9.05
2018-01-14T18:19:55.734Z,10.65
2018-01-14T18:22:24.044Z,13.40
2018-01-14T18:24:52.736Z,10.90
2018-01-14T18:27:20.603Z,10.25
2018-01-14T18:29:48.396Z,10.38
2018-01-14T18:32:16.183Z,10.25
2018-01-14T18:34:44.666Z,9.73
2018-01-14T18:37:13.154Z,9.50
2018-01-14T18:39:40.963Z,10.07
2018-01-14T18:42:08.830Z,9.80
2018-01-14T18:44:36.552Z,8.88
2018-01-14T18:47:04.360Z,10.10
2018-01-14T18:49:32.357Z,10.35
2018-01-14T18:52:00.082Z,10.95
2018-01-14T18:54:28.013Z,12.07
2018-01-14T18:56:56.507Z,10.80
2018-01-14T18:59:24.238Z,10.30
2018-01-14T19:01:52.342Z,11.27
2018-01-14T19:04:20.073Z,11.63
2018-01-14T19:06:47.913Z,12.02
2018-01-14T19:09:15.646Z,12.80
2018-01-14T19:11:43.544Z,12.35
2018-01-14T19:14:11.413Z,11.50
2018-01-14T19:16:39.279Z,12.60
2018-01-14T19:19:07.147Z,12.32
2018-01-14T19:21:34.876Z,13.23
2018-01-14T19:24:02.611Z,12.60
2018-01-14T19:26:31.114Z,12.50
2018-01-14T19:28:58.848Z,12.65
2018-01-14T19:31:26.699Z,13.60
2018-01-14T19:33:54.559Z,14.43
2018-01-14T19:36:22.322Z,13.02
2018-01-14T19:38:50.188Z,13.10
2018-01-14T19:41:17.917Z,13.30
2018-01-14T19:43:45.717Z,15.73
2018-01-14T19:46:13.446Z,13.02
2018-01-14T19:48:41.254Z,13.65
2018-01-14T19:51:09.116Z,14.05
2018-01-14T19:53:36.982Z,14.75
2018-01-14T19:56:04.850Z,15.05
2018-01-14T19:58:32.717Z,14.55
2018-01-14T20:01:00.584Z,15.38
2018-01-14T20:03:28.452Z,14.57
2018-01-14T20:05:56.184Z,14.57
2018-01-14T20:08:24.084Z,14.38
2018-01-14T20:10:51.822Z,13.77
2018-01-14T20:13:19.565Z,14.45
2018-01-14T20:15:47.383Z,13.10
2018-01-14T20:18:15.246Z,13.02
2018-01-14T20:20:43.114Z,13.98
2018-01-14T20:23:10.846Z,14.02
2018-01-14T20:25:38.581Z,12.35
2018-01-14T20:28:07.077Z,13.15
2018-01-14T20:30:34.890Z,13.57
2018-01-14T20:33:02.757Z,12.32
2018-01-14T20:35:30.485Z,12.15
2018-01-14T20:37:58.222Z,14.02
2018-01-14T20:40:26.719Z,12.50
2018-01-14T20:42:55.223Z,13.32
2018-01-14T20:45:22.966Z,13.77
2018-01-14T20:47:50.781Z,14.40
2018-01-14T20:50:18.521Z,13.25
2018-01-14T20:52:46.255Z,12.88
2018-01-14T20:55:14.761Z,13.40
2018-01-14T20:57:42.495Z,11.70
2018-01-14T21:00:11.042Z,11.77
2018-01-14T21:02:38.907Z,12.13
2018-01-14T21:05:06.702Z,12.55
2018-01-14T21:07:34.544Z,12.43
2018-01-14T21:10:02.407Z,13.68
2018-01-14T21:12:30.147Z,12.35
2018-01-14T21:14:57.888Z,12.18
2018-01-14T21:17:25.615Z,12.48
2018-01-14T21:19:53.352Z,12.45
2018-01-14T21:22:21.087Z,11.48
2018-01-14T21:24:48.833Z,13.75
2018-01-14T21:27:17.339Z,11.98
2018-01-14T21:29:45.058Z,13.25
2018-01-14T21:32:12.904Z,12.57
2018-01-14T21:34:40.771Z,12.82
2018-01-14T21:37:08.503Z,13.07
2018-01-14T21:39:36.248Z,12.85
2018-01-14T21:42:04.888Z,13.27
2018-01-14T21:44:32.614Z,12.13
2018-01-14T21:47:00.415Z,10.65
2018-01-14T21:49:28.282Z,10.75
2018-01-14T21:51:56.149Z,10.15
2018-01-14T21:54:24.019Z,10.52
2018-01-14T21:56:52.704Z,10.57
2018-01-14T21:59:20.571Z,9.82
2018-01-14T22:01:48.294Z,11.02
2018-01-14T22:04:16.102Z,10.27
2018-01-14T22:06:43.970Z,10.25
2018-01-14T22:09:11.837Z,10.70
2018-01-14T22:11:39.703Z,12.02
2018-01-14T22:14:07.431Z,11.52
2018-01-14T22:16:35.162Z,12.27
2018-01-14T22:19:02.998Z,13.60
2018-01-14T22:21:30.865Z,12.70
2018-01-14T22:23:58.732Z,12.90
2018-01-14T22:26:26.600Z,13.85
2018-01-14T22:28:54.466Z,13.20
2018-01-14T22:31:22.334Z,13.27
2018-01-14T22:33:50.201Z,13.00
2018-01-14T22:36:18.069Z,12.40
2018-01-14T22:38:45.777Z,12.77
2018-01-14T22:41:14.271Z,14.20
2018-01-14T22:43:42.083Z,12.65
2018-01-14T22:46:10.047Z,11.70
2018-01-14T22:48:37.919Z,12.50
2018-01-14T22:51:05.784Z,12.57
2018-01-14T22:53:33.652Z,12.93
2018-01-14T22:56:01.519Z,13.85
2018-01-14T22:58:29.243Z,12.50
2018-01-14T23:00:57.151Z,14.38
2018-01-14T23:03:25.019Z,15.15
2018-01-14T23:05:52.886Z,12.95
2018-01-14T23:08:20.622Z,13.82
2018-01-14T23:10:48.444Z,14.27
2018-01-14T23:13:17.102Z,13.68
2018-01-14T23:15:44.970Z,14.73
2018-01-14T23:18:12.837Z,15.70
2018-01-14T23:20:40.705Z,14.35
2018-01-14T23:23:08.572Z,15.35
2018-01-14T23:25:36.444Z,14.05
2018-01-14T23:28:04.309Z,14.82
2018-01-14T23:30:32.174Z,14.48
2018-01-14T23:33:00.042Z,13.55
2018-01-14T23:35:27.773Z,13.30
2018-01-14T23:37:55.674Z,13.60
2018-01-14T23:40:23.541Z,10.13
2018-01-14T23:42:51.409Z,8.98
2018-01-14T23:45:19.276Z,10.00
2018-01-14T23:47:47.145Z,10.30
2018-01-14T23:50:15.011Z,9.57
2018-01-14T23:52:42.877Z,9.50
2018-01-14T23:55:10.745Z,9.43
2018-01-14T23:57:38.612Z,8.95
